createdAt,value
2018-02-21T00:01:17.760Z,-3.30
2018-02-21T00:03:44.509Z,-3.00
2018-02-21T00:06:11.009Z,-3.20
2018-02-21T00:08:37.391Z,-3.10
2018-02-21T00:11:04.262Z,-2.90
2018-02-21T00:13:30.594Z,-2.80
2018-02-21T00:15:56.999Z,-2.60
2018-02-21T00:18:24.369Z,-2.30
2018-02-21T00:20:51.593Z,-2.40
2018-02-21T00:23:17.988Z,-2.30
2018-02-21T00:25:45.519Z,-2.30
2018-02-21T00:28:11.952Z,-2.30
2018-02-21T00:30:38.362Z,-2.20
2018-02-21T00:33:04.788Z,-2.20
2018-02-21T00:35:31.158Z,-2.10
2018-02-21T00:37:57.985Z,-2.70
2018-02-21T00:40:25.191Z,-2.00
2018-02-21T00:42:51.545Z,-2.10
2018-02-21T00:45:18.702Z,-2.10
2018-02-21T00:47:45.166Z,-2.10
2018-02-21T00:50:12.435Z,-0.30
2018-02-21T00:52:38.901Z,-2.00
2018-02-21T00:55:05.280Z,-2.00
2018-02-21T00:57:31.677Z,-1.90
2018-02-21T00:59:58.468Z,-1.90
2018-02-21T01:04:54.954Z,-1.80
2018-02-21T01:07:21.382Z,-1.70
2018-02-21T01:09:48.594Z,-1.70
2018-02-21T01:12:14.953Z,-1.70
2018-02-21T01:14:41.401Z,-1.70
2018-02-21T01:17:08.579Z,-1.70
2018-02-21T01:19:34.984Z,-1.70
2018-02-21T01:22:02.187Z,-1.70
2018-02-21T01:24:29.403Z,-1.60
2018-02-21T01:26:55.924Z,-1.50
2018-02-21T01:29:22.966Z,-1.40
2018-02-21T01:31:49.522Z,-1.40
2018-02-21T01:34:16.196Z,-1.30
2018-02-21T01:36:42.622Z,-1.20
2018-02-21T01:39:09.392Z,-1.30
2018-02-21T01:41:35.728Z,-1.20
2018-02-21T01:44:02.361Z,-1.10
2018-02-21T01:46:29.399Z,-1.00
2018-02-21T01:48:55.909Z,-1.00
2018-02-21T01:51:22.569Z,-1.00
2018-02-21T01:53:49.020Z,-1.00
2018-02-21T01:58:44.022Z,-0.90
2018-02-21T02:01:10.456Z,-0.90
2018-02-21T02:03:36.981Z,-0.60
2018-02-21T02:06:03.317Z,-0.80
2018-02-21T02:08:29.923Z,-0.70
2018-02-21T02:10:56.279Z,-0.60
2018-02-21T02:13:23.584Z,-0.60
2018-02-21T02:15:51.124Z,-0.60
2018-02-21T02:18:17.855Z,-0.60
2018-02-21T02:20:44.416Z,-0.50
2018-02-21T02:23:10.869Z,-0.70
2018-02-21T02:25:39.270Z,-0.60
2018-02-21T02:28:05.845Z,-0.50
2018-02-21T02:30:32.455Z,-0.50
2018-02-21T02:32:59.916Z,-0.10
2018-02-21T02:35:26.301Z,-0.60
2018-02-21T02:37:55.193Z,-0.60
2018-02-21T02:40:21.934Z,-0.60
2018-02-21T02:42:49.079Z,-0.50
2018-02-21T02:45:15.550Z,-0.50
2018-02-21T02:47:41.924Z,-0.40
2018-02-21T02:50:08.279Z,-0.30
2018-02-21T02:52:35.400Z,-0.10
2018-02-21T02:55:01.804Z,-0.10
2018-02-21T02:57:28.197Z,-0.10
2018-02-21T02:59:54.592Z,-0.10
2018-02-21T03:02:21.053Z,0.00
2018-02-21T03:04:47.481Z,0.00
2018-02-21T03:07:14.330Z,-0.10
2018-02-21T03:09:41.576Z,-0.10
2018-02-21T03:12:08.192Z,-0.10
2018-02-21T03:14:34.692Z,-0.20
2018-02-21T03:17:01.938Z,-0.30
2018-02-21T03:19:28.576Z,-0.20
2018-02-21T03:21:55.768Z,-0.30
2018-02-21T03:24:22.470Z,-0.30
2018-02-21T03:26:48.924Z,-0.40
2018-02-21T03:29:15.510Z,-0.30
2018-02-21T03:31:42.333Z,-0.40
2018-02-21T03:34:09.384Z,-0.30
2018-02-21T03:36:36.128Z,-0.10
2018-02-21T03:39:02.890Z,-0.10
2018-02-21T03:41:29.412Z,-0.10
2018-02-21T03:43:56.041Z,-0.10
2018-02-21T03:46:22.604Z,-0.10
2018-02-21T03:48:49.195Z,-0.20
2018-02-21T03:53:43.899Z,-0.10
2018-02-21T03:56:10.488Z,-0.10
2018-02-21T03:58:37.411Z,-0.20
2018-02-21T04:01:04.282Z,0.10
2018-02-21T04:03:30.728Z,-0.20
2018-02-21T04:05:57.212Z,-0.10
2018-02-21T04:08:23.752Z,-0.10
2018-02-21T04:10:50.192Z,-0.20
2018-02-21T04:13:16.712Z,-0.40
2018-02-21T04:15:43.893Z,-0.50
2018-02-21T04:18:10.297Z,-0.60
2018-02-21T04:20:36.836Z,-0.90
2018-02-21T04:25:31.328Z,-1.20
2018-02-21T04:27:57.871Z,-1.30
2018-02-21T04:30:25.362Z,-1.50
2018-02-21T04:32:52.790Z,-1.20
2018-02-21T04:35:19.922Z,-1.20
2018-02-21T04:37:46.423Z,-1.20
2018-02-21T04:40:13.275Z,-1.10
2018-02-21T04:42:39.667Z,-1.10
2018-02-21T04:48:03.519Z,-1.10
2018-02-21T04:50:30.424Z,-1.20
2018-02-21T04:52:57.113Z,-1.30
2018-02-21T04:55:26.925Z,-1.30
2018-02-21T04:57:56.250Z,-1.80
2018-02-21T05:00:24.424Z,-1.80
2018-02-21T05:02:51.666Z,-1.80
2018-02-21T05:05:18.413Z,-2.00
2018-02-21T05:07:45.129Z,-2.20
2018-02-21T05:10:12.648Z,-2.20
2018-02-21T05:12:39.406Z,-2.20
2018-02-21T05:15:06.518Z,-2.30
2018-02-21T05:22:29.203Z,-2.40
2018-02-21T05:24:56.640Z,-2.50
2018-02-21T05:27:23.852Z,-2.50
2018-02-21T05:29:50.285Z,-2.40
2018-02-21T05:32:16.710Z,-2.30
2018-02-21T05:34:43.361Z,-2.20
2018-02-21T05:37:09.821Z,-2.20
2018-02-21T05:39:36.564Z,-2.40
2018-02-21T05:42:04.099Z,-2.40
2018-02-21T05:44:30.458Z,-2.50
2018-02-21T05:46:58.734Z,-2.50
2018-02-21T05:49:26.657Z,-2.40
2018-02-21T05:51:53.778Z,-2.30
2018-02-21T05:54:20.208Z,-2.20
2018-02-21T05:56:47.727Z,-2.30
2018-02-21T06:01:43.007Z,-2.50
2018-02-21T06:04:10.319Z,-2.60
2018-02-21T06:06:38.645Z,-2.60
2018-02-21T06:09:05.739Z,-2.50
2018-02-21T06:11:33.576Z,-2.40
2018-02-21T06:14:00.911Z,-2.50
2018-02-21T06:16:35.572Z,-2.40
2018-02-21T06:19:02.808Z,-2.40
2018-02-21T06:26:29.272Z,-2.40
2018-02-21T06:33:52.030Z,-2.20
2018-02-21T06:36:18.497Z,-2.20
2018-02-21T06:38:45.286Z,-2.20
2018-02-21T06:41:11.740Z,-2.30
2018-02-21T06:43:38.533Z,-2.30
2018-02-21T06:46:06.393Z,-2.50
2018-02-21T06:48:32.836Z,-2.40
2018-02-21T06:50:59.645Z,-2.50
2018-02-21T06:53:26.424Z,-2.20
2018-02-21T06:55:53.273Z,-2.20
2018-02-21T06:58:19.836Z,-2.20
2018-02-21T07:00:48.400Z,-2.30
2018-02-21T07:03:15.153Z,-2.10
2018-02-21T07:05:42.390Z,-2.10
2018-02-21T07:08:09.236Z,-2.30
2018-02-21T07:10:36.491Z,-1.90
2018-02-21T07:13:03.696Z,-1.80
2018-02-21T07:17:58.577Z,-1.60
2018-02-21T07:20:25.449Z,-1.40
2018-02-21T07:22:51.830Z,-1.30
2018-02-21T07:25:18.971Z,-1.30
2018-02-21T07:27:45.724Z,-1.10
2018-02-21T07:30:12.849Z,-1.00
2018-02-21T07:32:39.220Z,-0.80
2018-02-21T07:35:05.634Z,-0.90
2018-02-21T07:37:32.856Z,-1.10
2018-02-21T07:42:27.373Z,-1.00
2018-02-21T07:49:50.038Z,-0.50
2018-02-21T07:52:17.554Z,-0.10
2018-02-21T07:54:44.244Z,0.10
2018-02-21T07:57:10.711Z,0.10
2018-02-21T07:59:37.070Z,0.10
2018-02-21T08:02:03.473Z,0.20
2018-02-21T08:04:31.064Z,0.40
2018-02-21T08:06:59.028Z,0.60
2018-02-21T08:09:26.141Z,0.90
2018-02-21T08:16:48.740Z,1.50
2018-02-21T08:19:15.216Z,1.50
2018-02-21T08:21:42.746Z,1.60
2018-02-21T08:24:09.910Z,2.00
2018-02-21T08:26:36.370Z,2.20
2018-02-21T08:29:03.221Z,2.40
2018-02-21T08:31:29.681Z,2.60
2018-02-21T08:33:57.113Z,2.70
2018-02-21T08:36:23.698Z,3.00
2018-02-21T08:38:50.157Z,2.90
2018-02-21T08:41:18.077Z,3.00
2018-02-21T08:43:44.883Z,3.00
2018-02-21T08:46:11.329Z,2.90
2018-02-21T08:48:37.834Z,2.80
2018-02-21T08:53:37.718Z,2.70
2018-02-21T08:56:04.585Z,2.90
2018-02-21T08:58:31.902Z,2.80
2018-02-21T09:00:59.057Z,2.90
2018-02-21T09:03:25.409Z,2.90
2018-02-21T09:05:51.774Z,2.90
2018-02-21T09:08:18.949Z,2.90
2018-02-21T09:10:45.783Z,2.90
2018-02-21T09:13:13.610Z,2.80
2018-02-21T09:15:40.760Z,2.90
2018-02-21T09:18:08.641Z,3.00
2018-02-21T09:20:35.115Z,3.20
2018-02-21T09:23:01.609Z,3.40
2018-02-21T09:25:28.425Z,3.60
2018-02-21T09:27:54.865Z,3.80
2018-02-21T09:30:21.736Z,3.90
2018-02-21T09:32:48.543Z,4.10
2018-02-21T09:35:15.633Z,4.40
2018-02-21T09:37:42.350Z,4.70
2018-02-21T09:40:09.935Z,4.80
2018-02-21T09:42:36.311Z,5.00
2018-02-21T09:45:03.144Z,5.10
2018-02-21T09:47:29.612Z,5.30
2018-02-21T09:49:55.984Z,5.40
2018-02-21T09:52:23.848Z,5.30
2018-02-21T09:54:50.965Z,5.30
2018-02-21T09:57:18.204Z,5.20
2018-02-21T09:59:44.642Z,5.00
2018-02-21T10:07:07.250Z,4.90
2018-02-21T10:12:01.753Z,4.60
2018-02-21T10:14:28.130Z,5.10
2018-02-21T10:16:55.294Z,4.60
2018-02-21T10:19:21.691Z,4.70
2018-02-21T10:21:48.441Z,5.00
2018-02-21T10:24:14.882Z,5.30
2018-02-21T10:26:41.699Z,5.50
2018-02-21T10:29:08.119Z,5.60
2018-02-21T10:31:35.637Z,5.70
2018-02-21T10:34:02.380Z,5.80
2018-02-21T10:36:28.747Z,5.80
2018-02-21T19:01:23.329Z,-1.40
2018-02-21T19:03:51.743Z,-2.10
2018-02-21T19:06:19.318Z,-1.40
2018-02-21T19:08:48.441Z,-1.50
2018-02-21T19:11:15.008Z,-1.40
2018-02-21T19:13:43.809Z,-1.60
2018-02-21T19:16:11.121Z,-1.50
2018-02-21T19:18:40.045Z,-1.60
2018-02-21T19:21:08.170Z,-1.60
2018-02-21T19:23:36.082Z,-1.40
2018-02-21T19:26:02.947Z,-1.20
2018-02-21T19:28:30.272Z,-1.40
2018-02-21T19:30:56.749Z,-1.40
2018-02-21T19:33:25.030Z,-1.50
2018-02-21T19:35:51.606Z,-1.50
2018-02-21T19:38:19.012Z,-1.50
2018-02-21T19:40:45.515Z,-1.50
2018-02-21T19:43:12.841Z,-1.40
2018-02-21T19:45:39.831Z,-1.30
2018-02-21T19:48:06.705Z,-1.40
2018-02-21T19:53:07.685Z,-1.70
2018-02-21T19:55:35.693Z,-1.70
2018-02-21T19:58:03.049Z,-1.80
2018-02-21T20:00:29.909Z,-1.60
2018-02-21T20:07:55.946Z,-1.60
2018-02-21T20:10:23.097Z,-1.60
2018-02-21T20:12:50.193Z,-1.80
2018-02-21T20:15:17.702Z,-1.80
2018-02-21T20:17:46.499Z,-1.90
2018-02-21T20:20:13.946Z,-2.00
2018-02-21T20:25:10.809Z,-2.00
2018-02-21T20:27:37.637Z,-2.10
2018-02-21T20:30:05.611Z,-2.10
2018-02-21T20:32:32.743Z,-2.20
2018-02-21T20:34:59.453Z,-2.10
2018-02-21T20:37:27.161Z,-2.10
2018-02-21T20:39:54.759Z,-2.30
2018-02-21T20:44:51.034Z,-2.30
2018-02-21T20:47:18.646Z,-2.00
2018-02-21T20:52:16.081Z,-2.00
2018-02-21T20:57:19.079Z,-2.30
2018-02-21T20:59:46.548Z,-2.30
2018-02-21T21:02:16.341Z,-2.50
2018-02-21T21:04:43.887Z,-2.40
2018-02-21T21:07:11.908Z,-2.60
2018-02-21T21:09:44.631Z,-2.70
2018-02-21T21:12:11.833Z,-2.70
2018-02-21T21:14:39.296Z,-2.70
2018-02-21T21:17:05.754Z,-2.80
2018-02-21T21:19:32.856Z,-2.90
2018-02-21T21:21:59.234Z,-2.80
2018-02-21T21:24:25.587Z,-3.00
2018-02-21T21:26:52.546Z,-3.10
2018-02-21T21:29:19.445Z,-2.90
2018-02-21T21:31:48.499Z,-3.20
2018-02-21T21:34:15.368Z,-2.90
2018-02-21T21:36:41.832Z,-3.00
2018-02-21T21:39:11.894Z,-2.90
2018-02-21T21:41:38.331Z,-3.00
2018-02-21T21:44:05.483Z,-3.00
2018-02-21T21:46:34.545Z,-3.20
2018-02-21T21:49:01.318Z,-3.30
2018-02-21T21:51:27.736Z,-3.20
2018-02-21T21:53:54.366Z,-3.20
2018-02-21T21:56:22.336Z,-3.00
2018-02-21T21:58:51.985Z,-2.90
2018-02-21T22:01:21.791Z,-3.00
2018-02-21T22:03:49.029Z,-3.00
2018-02-21T22:06:16.360Z,-3.20
2018-02-21T22:08:42.902Z,-3.30
2018-02-21T22:11:09.394Z,-3.40
2018-02-21T22:13:35.782Z,-3.20
2018-02-21T22:16:02.217Z,-3.30
2018-02-21T22:18:28.630Z,-3.20
2018-02-21T22:20:55.150Z,-3.20
2018-02-21T22:23:22.019Z,-3.10
2018-02-21T22:25:48.935Z,-3.20
2018-02-21T22:28:15.409Z,-3.10
2018-02-21T22:30:42.984Z,-3.10
2018-02-21T22:33:09.518Z,-3.00
2018-02-21T22:35:37.060Z,-2.90
2018-02-21T22:38:04.436Z,-3.00
2018-02-21T22:40:30.853Z,-2.70
2018-02-21T22:42:57.284Z,-3.00
2018-02-21T22:45:24.040Z,-3.00
2018-02-21T22:47:51.160Z,-2.80
2018-02-21T22:50:17.578Z,-2.90
2018-02-21T22:52:44.073Z,-2.80
2018-02-21T22:55:10.437Z,-2.70
2018-02-21T22:57:37.296Z,-2.70
2018-02-21T23:00:04.575Z,-2.50
2018-02-21T23:02:31.446Z,-2.50
2018-02-21T23:04:58.837Z,-2.40
2018-02-21T23:07:25.613Z,-2.40
2018-02-21T23:09:51.991Z,-2.40
2018-02-21T23:12:18.377Z,-2.30
2018-02-21T23:14:45.177Z,-2.10
2018-02-21T23:17:11.723Z,-2.20
2018-02-21T23:24:34.589Z,-2.40
2018-02-21T23:27:01.813Z,-2.50
2018-02-21T23:29:28.735Z,-2.50
2018-02-21T23:31:55.165Z,-2.50
2018-02-21T23:34:21.576Z,-2.40
2018-02-21T23:36:48.093Z,-2.50
2018-02-21T23:39:15.313Z,-2.50
2018-02-21T23:41:41.722Z,-2.60
2018-02-21T23:44:08.173Z,-2.50
2018-02-21T23:46:34.792Z,-2.50
2018-02-21T23:49:01.225Z,-2.50
2018-02-21T23:51:28.111Z,-2.50
2018-02-21T23:53:55.276Z,-2.50
2018-02-21T23:56:21.770Z,-2.30
2018-02-21T23:58:48.588Z,-2.20
